createdAt,value
2019-03-31T00:03:47.622Z,58.94
2019-03-31T00:06:38.490Z,59.01
2019-03-31T00:09:29.366Z,59.23
2019-03-31T00:12:12.774Z,59.30
2019-03-31T00:15:03.793Z,59.62
2019-03-31T00:17:46.656Z,59.98
2019-03-31T00:20:37.584Z,60.33
2019-03-31T00:23:21.142Z,60.59
2019-03-31T00:26:12.038Z,60.48
2019-03-31T00:28:54.894Z,60.43
2019-03-31T00:31:45.795Z,60.54
2019-03-31T00:34:29.199Z,61.04
2019-03-31T00:37:20.095Z,61.18
2019-03-31T00:40:03.167Z,61.39
2019-03-31T00:42:54.086Z,61.63
2019-03-31T00:45:36.918Z,61.93
2019-03-31T00:48:09.050Z,62.12
2019-03-31T00:50:59.979Z,62.22
2019-03-31T00:53:50.925Z,62.36
2019-03-31T00:56:34.622Z,62.52
2019-03-31T00:59:25.580Z,62.64
2019-03-31T01:06:06.647Z,63.01
2019-03-31T01:12:31.402Z,63.66
2019-03-31T01:19:12.069Z,63.69
2019-03-31T01:22:02.993Z,64.03
2019-03-31T01:24:53.964Z,64.07
2019-03-31T01:27:37.506Z,63.96
2019-03-31T01:30:21.633Z,64.22
2019-03-31T01:33:12.644Z,64.50
2019-03-31T01:35:56.166Z,64.55
2019-03-31T01:38:47.094Z,64.33
2019-03-31T01:41:30.629Z,64.40
2019-03-31T01:44:21.626Z,64.57
2019-03-31T01:47:05.323Z,65.03
2019-03-31T01:49:56.260Z,65.21
2019-03-31T01:52:39.962Z,65.67
2019-03-31T01:55:30.856Z,65.89
2019-03-31T01:58:13.818Z,66.35
2019-03-31T02:04:08.321Z,67.25
2019-03-31T02:06:51.201Z,67.18
2019-03-31T02:09:42.092Z,67.38
2019-03-31T02:12:25.289Z,67.95
2019-03-31T02:15:16.191Z,68.29
2019-03-31T02:17:59.625Z,68.49
2019-03-31T02:20:50.539Z,69.06
2019-03-31T02:23:34.001Z,69.08
2019-03-31T02:29:27.354Z,69.15
2019-03-31T02:32:23.729Z,69.31
2019-03-31T02:35:03.491Z,69.50
2019-03-31T02:37:46.457Z,69.99
2019-03-31T02:40:37.385Z,69.95
2019-03-31T02:43:20.341Z,70.55
2019-03-31T02:46:11.265Z,70.89
2019-03-31T02:48:54.250Z,70.86
2019-03-31T02:51:45.162Z,70.94
2019-03-31T02:54:28.320Z,71.21
2019-03-31T03:01:07.207Z,71.45
2019-03-31T03:07:31.293Z,71.31
2019-03-31T03:14:09.481Z,71.30
2019-03-31T03:16:41.570Z,71.23
2019-03-31T03:19:32.530Z,71.07
2019-03-31T03:25:07.693Z,70.68
2019-03-31T03:27:50.977Z,70.98
2019-03-31T03:30:34.072Z,70.90
2019-03-31T03:33:25.057Z,70.99
2019-03-31T03:36:08.449Z,70.88
2019-03-31T03:38:59.364Z,71.03
2019-03-31T03:41:42.321Z,70.78
2019-03-31T03:44:33.221Z,70.97
2019-03-31T03:47:16.847Z,71.20
2019-03-31T03:49:59.663Z,71.39
2019-03-31T03:52:50.595Z,71.39
2019-03-31T03:55:33.942Z,71.39
2019-03-31T03:58:24.856Z,71.52
2019-03-31T04:01:27.970Z,71.62
2019-03-31T04:04:18.888Z,71.83
2019-03-31T04:07:02.347Z,71.96
2019-03-31T04:09:53.220Z,72.13
2019-03-31T04:12:36.236Z,72.57
2019-03-31T04:15:27.146Z,72.67
2019-03-31T04:18:10.583Z,73.30
2019-03-31T04:21:01.457Z,73.87
2019-03-31T04:23:44.497Z,74.22
2019-03-31T04:26:35.356Z,74.52
2019-03-31T04:29:18.227Z,74.87
2019-03-31T04:32:09.132Z,74.99
2019-03-31T04:35:00.515Z,75.22
2019-03-31T04:38:04.991Z,75.58
2019-03-31T04:40:55.931Z,75.30
2019-03-31T04:43:38.812Z,75.63
2019-03-31T04:46:29.789Z,75.89
2019-03-31T04:49:13.620Z,75.82
2019-03-31T04:52:04.578Z,75.67
2019-03-31T04:54:55.469Z,75.63
2019-03-31T04:57:46.372Z,75.52
2019-03-31T05:00:29.459Z,75.56
2019-03-31T05:03:20.383Z,75.37
2019-03-31T05:06:03.951Z,75.37
2019-03-31T05:08:54.891Z,75.40
2019-03-31T05:11:45.784Z,74.94
2019-03-31T05:14:36.706Z,74.86
2019-03-31T05:17:20.325Z,75.16
2019-03-31T05:20:11.331Z,74.53
2019-03-31T05:22:54.877Z,74.54
2019-03-31T05:25:45.820Z,74.19
2019-03-31T05:28:28.659Z,73.64
2019-03-31T05:31:19.561Z,71.98
2019-03-31T05:34:02.736Z,72.10
2019-03-31T05:36:53.627Z,72.07
2019-03-31T05:39:37.161Z,71.62
2019-03-31T05:42:28.095Z,71.66
2019-03-31T05:45:11.690Z,70.96
2019-03-31T05:48:02.599Z,71.19
2019-03-31T05:50:45.732Z,71.00
2019-03-31T05:53:36.636Z,71.30
2019-03-31T05:56:20.234Z,71.30
2019-03-31T05:59:11.169Z,70.98
2019-03-31T06:01:54.497Z,71.36
2019-03-31T06:04:45.442Z,71.24
2019-03-31T06:07:28.243Z,71.27
2019-03-31T06:10:19.152Z,71.22
2019-03-31T06:13:02.274Z,71.20
2019-03-31T06:15:53.199Z,71.44
2019-03-31T06:18:36.870Z,71.27
2019-03-31T06:21:29.246Z,71.19
2019-03-31T06:24:32.446Z,71.19
2019-03-31T06:27:23.371Z,71.56
2019-03-31T06:30:07.301Z,71.72
2019-03-31T06:32:58.208Z,72.33
2019-03-31T06:35:41.270Z,72.76
2019-03-31T06:38:32.166Z,72.81
2019-03-31T06:41:15.568Z,72.79
2019-03-31T06:44:06.483Z,72.77
2019-03-31T06:46:49.278Z,72.97
2019-03-31T06:49:40.173Z,73.47
2019-03-31T06:52:23.792Z,73.39
2019-03-31T06:55:14.704Z,73.26
2019-03-31T06:57:58.393Z,73.49
2019-03-31T07:00:49.269Z,73.70
2019-03-31T07:03:32.438Z,73.96
2019-03-31T07:06:42.132Z,74.18
2019-03-31T07:09:25.873Z,73.77
2019-03-31T07:12:16.762Z,73.20
2019-03-31T07:15:00.102Z,73.27
2019-03-31T07:17:51.000Z,73.44
2019-03-31T07:20:34.084Z,73.53
2019-03-31T07:23:24.996Z,73.53
2019-03-31T07:26:08.391Z,73.06
2019-03-31T07:28:52.138Z,73.08
2019-03-31T07:31:43.016Z,73.21
2019-03-31T07:34:30.696Z,73.17
2019-03-31T07:37:13.894Z,73.26
2019-03-31T07:40:05.319Z,73.34
2019-03-31T07:43:08.792Z,73.22
2019-03-31T07:45:59.723Z,73.75
2019-03-31T07:48:43.463Z,74.10
2019-03-31T07:51:37.404Z,74.52
2019-03-31T07:54:39.434Z,74.31
2019-03-31T07:57:29.930Z,73.95
2019-03-31T08:00:14.509Z,73.97
2019-03-31T08:03:08.803Z,74.40
2019-03-31T08:05:51.998Z,74.40
2019-03-31T08:08:42.880Z,74.68
2019-03-31T08:11:33.762Z,74.44
2019-03-31T08:14:16.790Z,73.82
2019-03-31T08:17:07.719Z,73.47
2019-03-31T08:19:51.329Z,73.47
2019-03-31T08:22:42.251Z,73.47
2019-03-31T08:25:25.103Z,72.34
2019-03-31T08:28:15.983Z,71.76
2019-03-31T08:30:58.823Z,71.52
2019-03-31T08:33:49.735Z,71.42
2019-03-31T08:36:35.279Z,70.97
2019-03-31T08:39:25.652Z,70.49
2019-03-31T08:42:08.558Z,70.55
2019-03-31T08:44:59.442Z,69.34
2019-03-31T08:51:09.372Z,69.15
2019-03-31T08:54:00.287Z,69.20
2019-03-31T08:56:43.944Z,68.75
2019-03-31T08:59:34.827Z,69.06
2019-03-31T09:05:34.935Z,69.14
2019-03-31T09:08:25.834Z,69.03
2019-03-31T09:11:16.818Z,68.28
2019-03-31T09:13:59.743Z,68.54
2019-03-31T09:16:50.655Z,68.48
2019-03-31T09:19:33.655Z,67.73
2019-03-31T09:22:24.592Z,67.34
2019-03-31T09:25:07.694Z,67.40
2019-03-31T09:27:58.608Z,66.90
2019-03-31T09:30:41.493Z,66.19
2019-03-31T09:33:32.394Z,66.02
2019-03-31T09:36:16.929Z,65.69
2019-03-31T09:39:00.445Z,65.53
2019-03-31T09:41:51.374Z,65.48
2019-03-31T09:44:34.574Z,65.23
2019-03-31T09:47:25.459Z,64.61
2019-03-31T09:50:09.534Z,64.42
2019-03-31T09:53:00.426Z,64.00
2019-03-31T09:55:44.086Z,64.10
2019-03-31T09:58:34.996Z,63.63
2019-03-31T10:01:18.196Z,62.98
2019-03-31T10:04:09.119Z,62.53
2019-03-31T10:06:53.289Z,60.88
2019-03-31T10:10:04.513Z,60.44
2019-03-31T10:12:47.586Z,60.49
2019-03-31T10:15:38.487Z,60.64
2019-03-31T10:18:21.801Z,59.77
2019-03-31T10:21:12.663Z,59.48
2019-03-31T10:23:55.557Z,59.82
2019-03-31T10:26:46.486Z,59.82
2019-03-31T10:29:29.622Z,60.05
2019-03-31T10:32:20.556Z,59.51
2019-03-31T10:35:04.600Z,59.26
2019-03-31T10:37:53.571Z,58.92
2019-03-31T10:40:37.286Z,58.00
2019-03-31T10:43:09.433Z,58.20
2019-03-31T10:46:00.365Z,58.34
2019-03-31T10:48:51.320Z,58.02
2019-03-31T10:51:34.874Z,57.26
2019-03-31T10:54:25.786Z,56.98
2019-03-31T10:57:09.750Z,56.56
2019-03-31T10:59:53.033Z,56.65
2019-03-31T11:02:43.927Z,56.53
2019-03-31T11:05:26.921Z,56.23
2019-03-31T11:08:17.848Z,56.17
2019-03-31T11:11:00.653Z,56.69
2019-03-31T11:13:51.567Z,55.76
2019-03-31T11:16:35.243Z,55.69
2019-03-31T11:19:26.160Z,55.43
2019-03-31T11:22:28.512Z,55.34
2019-03-31T11:25:21.337Z,53.98
2019-03-31T11:28:24.674Z,54.29
2019-03-31T11:31:17.946Z,53.35
2019-03-31T11:34:20.149Z,53.02
2019-03-31T11:38:04.798Z,52.75
2019-03-31T11:40:47.603Z,52.64
2019-03-31T11:43:57.372Z,51.29
2019-03-31T11:46:40.564Z,50.33
2019-03-31T11:49:31.492Z,50.14
2019-03-31T11:52:16.318Z,49.74
2019-03-31T11:55:07.404Z,49.47
2019-03-31T11:57:51.057Z,48.95
2019-03-31T12:04:17.098Z,46.61
2019-03-31T12:07:01.337Z,47.25
2019-03-31T12:09:44.755Z,46.54
2019-03-31T12:12:37.199Z,45.73
2019-03-31T12:15:20.438Z,45.64
2019-03-31T12:18:11.346Z,44.47
2019-03-31T12:20:55.071Z,44.08
2019-03-31T12:23:45.987Z,42.70
2019-03-31T12:26:29.054Z,42.27
2019-03-31T12:29:20.067Z,42.71
2019-03-31T12:32:10.975Z,42.81
2019-03-31T12:35:17.946Z,43.11
2019-03-31T12:38:01.650Z,42.98
2019-03-31T12:40:52.556Z,43.01
2019-03-31T12:43:35.988Z,43.47
2019-03-31T12:46:26.901Z,43.15
2019-03-31T12:49:10.280Z,43.50
2019-03-31T12:52:01.164Z,43.66
2019-03-31T12:54:50.238Z,43.67
2019-03-31T12:57:33.747Z,42.46
2019-03-31T13:00:24.697Z,41.76
2019-03-31T13:03:08.325Z,42.77
2019-03-31T13:05:59.212Z,43.43
2019-03-31T13:08:42.436Z,43.92
2019-03-31T13:11:33.358Z,44.19
2019-03-31T13:14:16.328Z,43.38
2019-03-31T13:17:07.242Z,43.41
2019-03-31T13:19:50.915Z,43.52
2019-03-31T13:22:41.841Z,43.56
2019-03-31T13:25:25.143Z,43.67
2019-03-31T13:28:16.014Z,43.04
2019-03-31T13:30:59.659Z,43.50
2019-03-31T13:33:50.548Z,42.65
2019-03-31T13:36:34.234Z,42.98
2019-03-31T13:39:25.163Z,42.10
2019-03-31T13:42:08.570Z,42.67
2019-03-31T13:44:59.467Z,43.24
2019-03-31T13:47:42.297Z,43.22
2019-03-31T13:50:33.206Z,42.69
2019-03-31T13:53:16.562Z,43.25
2019-03-31T13:56:07.532Z,42.79
2019-03-31T13:58:52.459Z,42.99
2019-03-31T14:01:42.962Z,43.58
2019-03-31T14:04:26.653Z,43.91
2019-03-31T14:07:10.027Z,43.66
2019-03-31T14:10:00.905Z,43.88
2019-03-31T14:12:44.534Z,44.70
2019-03-31T14:15:35.450Z,43.98
2019-03-31T14:18:18.432Z,43.06
2019-03-31T14:21:09.303Z,42.70
2019-03-31T14:23:58.741Z,42.69
2019-03-31T14:26:47.845Z,42.39
2019-03-31T14:29:42.268Z,41.73
2019-03-31T14:32:43.695Z,41.88
2019-03-31T14:35:37.836Z,41.70
2019-03-31T14:38:40.633Z,42.19
2019-03-31T14:41:31.674Z,42.09
2019-03-31T14:44:19.014Z,42.38
2019-03-31T14:47:02.710Z,43.02
2019-03-31T14:49:53.626Z,42.82
2019-03-31T14:52:37.265Z,42.59
2019-03-31T14:55:28.191Z,41.70
2019-03-31T14:58:11.665Z,41.39
2019-03-31T15:01:21.499Z,40.65
2019-03-31T15:04:26.619Z,40.06
2019-03-31T15:07:17.539Z,38.74
2019-03-31T15:10:00.780Z,38.90
2019-03-31T15:12:51.693Z,39.37
2019-03-31T15:15:34.823Z,39.61
2019-03-31T15:22:14.303Z,40.98
2019-03-31T15:25:05.389Z,40.48
2019-03-31T15:27:48.987Z,40.07
2019-03-31T15:30:39.883Z,40.04
2019-03-31T15:33:23.588Z,39.26
2019-03-31T15:36:14.522Z,39.45
2019-03-31T15:39:09.116Z,39.73
2019-03-31T15:41:50.782Z,39.69
2019-03-31T15:44:41.688Z,39.81
2019-03-31T15:47:29.543Z,40.29
2019-03-31T15:54:08.227Z,40.97
2019-03-31T15:56:59.176Z,41.88
2019-03-31T16:00:44.818Z,42.19
2019-03-31T16:03:27.967Z,42.17
2019-03-31T16:06:18.853Z,42.66
2019-03-31T16:09:02.209Z,42.75
2019-03-31T16:11:54.047Z,42.42
2019-03-31T16:14:56.976Z,42.48
2019-03-31T16:17:47.333Z,42.52
2019-03-31T16:20:30.693Z,42.51
2019-03-31T16:23:21.091Z,42.44
2019-03-31T16:26:04.353Z,42.90
2019-03-31T16:28:55.289Z,42.81
2019-03-31T16:31:38.390Z,43.07
2019-03-31T16:34:28.745Z,43.56
2019-03-31T16:37:11.648Z,44.00
2019-03-31T16:39:54.564Z,44.25
2019-03-31T16:42:44.962Z,44.60
2019-03-31T16:45:31.507Z,44.85
2019-03-31T16:48:14.135Z,45.19
2019-03-31T16:51:04.501Z,45.72
2019-03-31T16:53:47.035Z,45.73
2019-03-31T16:56:37.399Z,46.09
2019-03-31T16:59:20.557Z,46.16
2019-03-31T17:02:10.924Z,46.45
2019-03-31T17:04:54.332Z,46.19
2019-03-31T17:07:44.720Z,45.77
2019-03-31T17:10:27.976Z,45.70
2019-03-31T17:16:44.847Z,45.98
2019-03-31T17:19:35.192Z,46.39
2019-03-31T17:22:25.578Z,46.27
2019-03-31T17:25:08.399Z,46.45
2019-03-31T17:27:58.743Z,46.45
2019-03-31T17:30:41.500Z,46.96
2019-03-31T17:33:31.878Z,47.01
2019-03-31T17:36:14.485Z,47.01
2019-03-31T17:42:42.591Z,46.85
2019-03-31T17:45:25.587Z,47.34
2019-03-31T17:48:15.987Z,47.81
2019-03-31T17:51:06.404Z,47.47
2019-03-31T17:53:49.011Z,48.15
2019-03-31T17:56:39.343Z,48.08
2019-03-31T17:59:22.768Z,48.13
2019-03-31T18:02:13.120Z,48.71
2019-03-31T18:04:56.599Z,48.96
2019-03-31T18:07:46.956Z,49.19
2019-03-31T18:10:30.196Z,49.40
2019-03-31T18:13:20.551Z,49.48
2019-03-31T18:16:03.417Z,49.19
2019-03-31T18:18:53.760Z,49.00
2019-03-31T18:21:37.267Z,49.31
2019-03-31T18:24:27.652Z,49.35
2019-03-31T18:27:10.791Z,49.28
2019-03-31T18:30:01.242Z,49.55
2019-03-31T18:32:51.586Z,49.66
2019-03-31T18:35:41.951Z,49.07
2019-03-31T18:38:26.173Z,49.92
2019-03-31T18:41:11.260Z,50.08
2019-03-31T18:44:01.649Z,49.85
2019-03-31T18:46:45.019Z,49.85
2019-03-31T18:49:35.386Z,50.42
2019-03-31T18:52:18.714Z,51.27
2019-03-31T18:55:19.989Z,51.43
2019-03-31T18:58:18.507Z,51.36
2019-03-31T19:01:20.944Z,51.38
2019-03-31T19:04:54.746Z,51.08
2019-03-31T19:08:03.985Z,50.79
2019-03-31T19:11:32.147Z,51.21
2019-03-31T19:14:41.367Z,50.22
2019-03-31T19:17:40.465Z,50.71
2019-03-31T19:24:10.418Z,50.15
2019-03-31T19:30:01.163Z,49.68
2019-03-31T19:33:10.469Z,49.71
2019-03-31T19:36:12.549Z,49.78
2019-03-31T19:39:21.819Z,50.03
2019-03-31T19:42:11.267Z,48.85
2019-03-31T19:45:20.544Z,48.80
2019-03-31T19:48:24.991Z,48.71
2019-03-31T19:51:34.317Z,49.21
2019-03-31T19:57:15.900Z,49.34
2019-03-31T20:03:54.446Z,48.71
2019-03-31T20:10:03.347Z,49.42
2019-03-31T20:13:12.597Z,49.20
2019-03-31T20:16:25.078Z,49.96
2019-03-31T20:19:27.240Z,50.13
2019-03-31T20:22:36.948Z,49.91
2019-03-31T20:25:39.096Z,49.54
2019-03-31T20:28:48.335Z,50.27
2019-03-31T20:31:57.642Z,50.57
2019-03-31T20:34:55.093Z,50.67
2019-03-31T20:37:43.817Z,50.56
2019-03-31T20:41:02.297Z,50.81
2019-03-31T20:43:53.679Z,51.62
2019-03-31T20:46:36.849Z,51.78
2019-03-31T20:52:44.883Z,51.99
2019-03-31T20:55:35.304Z,52.17
2019-03-31T20:58:18.071Z,52.73
2019-03-31T21:01:10.200Z,52.83
2019-03-31T21:04:12.971Z,53.18
2019-03-31T21:07:03.369Z,53.63
2019-03-31T21:09:46.664Z,54.21
2019-03-31T21:12:29.328Z,54.55
2019-03-31T21:15:40.197Z,54.44
2019-03-31T21:18:23.634Z,54.84
2019-03-31T21:21:14.005Z,54.59
2019-03-31T21:23:57.083Z,54.96
2019-03-31T21:26:47.531Z,54.91
2019-03-31T21:29:30.169Z,54.45
2019-03-31T21:32:20.529Z,54.10
2019-03-31T21:35:11.054Z,53.97
2019-03-31T21:38:01.411Z,53.11
2019-03-31T21:40:51.781Z,52.87
2019-03-31T21:43:42.159Z,52.59
2019-03-31T21:46:24.750Z,52.53
2019-03-31T21:49:15.104Z,52.58
2019-03-31T21:51:58.344Z,52.00
2019-03-31T21:54:48.719Z,52.23
2019-03-31T21:57:31.296Z,52.37
2019-03-31T22:03:49.995Z,52.95
2019-03-31T22:06:40.323Z,53.11
2019-03-31T22:09:30.719Z,53.53
2019-03-31T22:12:13.378Z,53.55
2019-03-31T22:14:55.958Z,53.24
2019-03-31T22:17:46.330Z,53.72
2019-03-31T22:20:29.635Z,53.83
2019-03-31T22:23:20.014Z,53.80
2019-03-31T22:26:03.365Z,53.84
2019-03-31T22:28:53.889Z,53.91
2019-03-31T22:31:36.784Z,54.38
2019-03-31T22:34:28.665Z,54.61
2019-03-31T22:37:12.200Z,55.07
2019-03-31T22:40:02.539Z,54.81
2019-03-31T22:42:45.709Z,55.14
2019-03-31T22:45:36.081Z,55.71
2019-03-31T22:48:18.923Z,55.60
2019-03-31T22:51:09.280Z,55.88
2019-03-31T22:53:52.226Z,55.89
2019-03-31T22:56:42.590Z,55.92
2019-03-31T22:59:25.427Z,56.56
2019-03-31T23:02:15.801Z,56.54
2019-03-31T23:04:59.302Z,56.78
2019-03-31T23:07:42.036Z,57.26
2019-03-31T23:10:32.376Z,57.45
2019-03-31T23:13:16.516Z,57.41
2019-03-31T23:15:59.336Z,57.70
2019-03-31T23:18:49.685Z,58.00
2019-03-31T23:21:33.119Z,58.04
2019-03-31T23:24:23.470Z,58.42
2019-03-31T23:27:06.596Z,58.03
2019-03-31T23:29:56.983Z,58.12
2019-03-31T23:32:40.221Z,58.27
2019-03-31T23:35:30.590Z,58.69
2019-03-31T23:38:20.963Z,58.62
2019-03-31T23:41:03.961Z,58.75
2019-03-31T23:43:54.311Z,58.71
2019-03-31T23:46:37.614Z,59.21
2019-03-31T23:49:27.977Z,59.13
2019-03-31T23:52:10.756Z,59.10
2019-03-31T23:55:01.124Z,59.64
2019-03-31T23:57:44.637Z,59.52
